Time;durP1;ratioP1;P1;durP2;ratioP2;P2;SDS_P1;SDS_P2;PMS_P1;PMS_P2;Temp;Humidity;BMP_temperature;BMP_pressure;BME280_temperature;BME280_humidity;BME280_pressure;Samples;Min_cycle;Max_cycle;Signal;HPM_P1;HPM_P2
2023/04/04 00:01:16;;;;;;;;;;;8.20;99.90;;;;;;6179301;23;19916;-88
2023/04/04 00:03:42;;;;;;;;;;;8.20;99.90;;;;;;6154133;23;19905;-86
2023/04/04 00:06:07;;;;;;;;;;;6.50;99.90;;;;;;6179237;23;19908;-88
2023/04/04 00:08:33;;;;;;;;;;;8.40;99.90;;;;;;6180858;23;19905;-88
2023/04/04 00:14:02;;;;;;;;;;;6.10;99.90;;;;;;6180868;23;20241;-86
2023/04/04 00:16:27;;;;;;;;;;;6.10;99.90;;;;;;6182722;23;19991;-84
2023/04/04 00:18:53;;;;;;;;;;;6.10;99.90;;;;;;6180486;23;19904;-84
2023/04/04 00:21:18;;;;;;;;;;;6.10;99.90;;;;;;6180663;23;19908;-84
2023/04/04 00:23:44;;;;;;;;;;;5.60;99.90;;;;;;6153978;23;19912;-84
2023/04/04 00:26:09;;;;;;;;;;;6.00;99.90;;;;;;6180571;23;19905;-83
2023/04/04 00:28:35;;;;;;;;;;;8.10;99.90;;;;;;6180818;23;19943;-87
2023/04/04 00:31:01;;;;;;;;;;;8.60;99.90;;;;;;6181971;23;19905;-84
2023/04/04 00:33:26;;;;;;;;;;;8.40;99.90;;;;;;6183629;23;19965;-86
2023/04/04 04:27:05;;;;;;;;;;;3.90;99.90;;;;;;6200908;23;19924;-88
2023/04/04 04:29:31;;;;;;;;;;;3.80;99.90;;;;;;6209582;23;19908;-88
2023/04/04 04:31:56;;;;;;;;;;;3.60;99.90;;;;;;6212211;23;19911;-89
2023/04/04 04:34:22;;;;;;;;;;;3.80;99.90;;;;;;6212738;23;20287;-88
2023/04/04 04:36:47;;;;;;;;;;;3.80;99.90;;;;;;6210593;23;19979;-87
2023/04/04 04:39:13;;;;;;;;;;;3.70;99.90;;;;;;6210581;23;19908;-88
2023/04/04 04:41:38;;;;;;;;;;;2.60;99.90;;;;;;6211896;23;20252;-89
2023/04/04 04:44:04;;;;;;;;;;;3.90;99.90;;;;;;6210624;23;19904;-88
2023/04/04 04:46:30;;;;;;;;;;;3.80;99.90;;;;;;6212693;23;19908;-88
2023/04/04 04:48:56;;;;;;;;;;;3.90;99.90;;;;;;6212666;23;19981;-88
2023/04/04 04:51:22;;;;;;;;;;;3.80;99.90;;;;;;6210835;23;20274;-87
2023/04/04 04:53:47;;;;;;;;;;;3.80;99.90;;;;;;6212091;23;20288;-88
2023/04/04 04:56:13;;;;;;;;;;;3.80;99.90;;;;;;6210313;23;19911;-89
2023/04/04 04:58:38;;;;;;;;;;;3.70;99.90;;;;;;6204907;23;19932;-88
2023/04/04 05:01:04;;;;;;;;;;;3.70;99.90;;;;;;6208058;23;19912;-88
2023/04/04 05:03:29;;;;;;;;;;;3.70;99.90;;;;;;6209099;23;20393;-89
2023/04/04 05:05:56;;;;;;;;;;;3.60;99.90;;;;;;6210366;23;19920;-89
2023/04/04 05:08:22;;;;;;;;;;;3.60;99.90;;;;;;6212511;23;20359;-89
2023/04/04 05:10:48;;;;;;;;;;;3.50;99.90;;;;;;6212644;23;19904;-89
2023/04/04 05:13:13;;;;;;;;;;;3.60;99.90;;;;;;6235241;23;20324;-88
2023/04/04 05:15:39;;;;;;;;;;;3.60;99.90;;;;;;6213302;23;19908;-90
2023/04/04 05:18:04;;;;;;;;;;;3.50;99.90;;;;;;6212379;23;19904;-89
2023/04/04 05:20:30;;;;;;;;;;;3.50;99.90;;;;;;6212175;23;19919;-87
2023/04/04 05:22:56;;;;;;;;;;;3.50;99.90;;;;;;6211540;23;19903;-87
2023/04/04 05:25:21;;;;;;;;;;;3.40;99.90;;;;;;6212233;23;19983;-87
2023/04/04 05:27:47;;;;;;;;;;;3.30;99.90;;;;;;6235494;23;19944;-86
2023/04/04 05:30:13;;;;;;;;;;;3.50;99.90;;;;;;6212089;23;19958;-87
2023/04/04 05:32:38;;;;;;;;;;;3.50;99.90;;;;;;6212408;23;20059;-87
2023/04/04 05:35:04;;;;;;;;;;;3.50;99.90;;;;;;6211920;23;19904;-86
2023/04/04 05:37:29;;;;;;;;;;;3.40;99.90;;;;;;6211746;23;20332;-87
2023/04/04 05:39:55;;;;;;;;;;;3.20;99.90;;;;;;6211672;23;19986;-87
2023/04/04 05:42:21;;;;;;;;;;;3.30;99.90;;;;;;6211634;23;19908;-86
2023/04/04 05:44:46;;;;;;;;;;;3.40;99.90;;;;;;6235014;23;19943;-86
2023/04/04 05:47:12;;;;;;;;;;;2.50;99.90;;;;;;6212834;23;19982;-88
2023/04/04 05:49:37;;;;;;;;;;;2.80;99.90;;;;;;6212239;23;20333;-87
2023/04/04 05:52:03;;;;;;;;;;;3.40;99.90;;;;;;6211546;23;19908;-87
2023/04/04 05:54:29;;;;;;;;;;;3.40;99.90;;;;;;6211575;23;20007;-87
2023/04/04 05:56:54;;;;;;;;;;;5.90;99.90;;;;;;6211572;23;20389;-87
2023/04/04 05:59:20;;;;;;;;;;;3.40;99.90;;;;;;6211771;23;19961;-87
2023/04/04 06:01:46;;;;;;;;;;;3.40;99.90;;;;;;6211783;23;20328;-87
2023/04/04 06:04:11;;;;;;;;;;;3.40;99.90;;;;;;6212104;23;19910;-87
2023/04/04 06:06:37;;;;;;;;;;;3.40;99.90;;;;;;6211247;23;19935;-85
2023/04/04 06:09:03;;;;;;;;;;;3.40;99.90;;;;;;6210664;23;19911;-88
2023/04/04 06:11:28;;;;;;;;;;;3.50;99.90;;;;;;6211342;23;19915;-86
2023/04/04 06:13:54;;;;;;;;;;;3.60;99.90;;;;;;6211008;23;19904;-86
2023/04/04 06:16:20;;;;;;;;;;;3.50;99.90;;;;;;6211734;23;19903;-87
2023/04/04 06:18:46;;;;;;;;;;;3.50;99.90;;;;;;6211538;23;19904;-87
2023/04/04 06:21:12;;;;;;;;;;;3.70;99.90;;;;;;6212380;23;19919;-87
2023/04/04 06:23:38;;;;;;;;;;;3.60;99.90;;;;;;6234469;23;19904;-88
2023/04/04 06:26:04;;;;;;;;;;;3.70;99.90;;;;;;6211182;23;20007;-87
2023/04/04 06:28:29;;;;;;;;;;;3.70;99.90;;;;;;6210735;23;19924;-87
2023/04/04 06:30:55;;;;;;;;;;;3.70;99.90;;;;;;6235005;23;20252;-87
2023/04/04 06:33:20;;;;;;;;;;;3.70;99.90;;;;;;6210511;23;20019;-88
2023/04/04 06:35:46;;;;;;;;;;;3.80;99.90;;;;;;6210766;23;20015;-87
2023/04/04 06:38:11;;;;;;;;;;;3.90;99.90;;;;;;6211731;23;19904;-88
2023/04/04 06:40:37;;;;;;;;;;;3.90;99.90;;;;;;6211085;23;19919;-88
2023/04/04 06:43:03;;;;;;;;;;;3.90;99.90;;;;;;6211320;23;19910;-88
2023/04/04 06:45:32;;;;;;;;;;;4.10;99.90;;;;;;6211802;23;19915;-87
2023/04/04 06:47:58;;;;;;;;;;;7.80;99.90;;;;;;6234701;23;19903;-87
2023/04/04 06:50:23;;;;;;;;;;;4.20;99.90;;;;;;6209007;23;19950;-88
2023/04/04 06:52:49;;;;;;;;;;;4.20;99.90;;;;;;6211087;23;19908;-87
2023/04/04 06:55:15;;;;;;;;;;;6.90;99.90;;;;;;6211798;23;19904;-87
2023/04/04 06:57:41;;;;;;;;;;;4.30;99.90;;;;;;6211863;23;20321;-89
2023/04/04 07:00:06;;;;;;;;;;;4.10;99.90;;;;;;6211293;23;19912;-89
2023/04/04 07:02:32;;;;;;;;;;;4.50;99.90;;;;;;6211163;23;19904;-88
2023/04/04 07:04:58;;;;;;;;;;;4.60;99.90;;;;;;6210647;23;19904;-91
2023/04/04 07:07:23;;;;;;;;;;;4.60;99.90;;;;;;6211099;23;19991;-88
2023/04/04 07:09:49;;;;;;;;;;;4.80;99.90;;;;;;6210974;23;20317;-88
2023/04/04 07:12:15;;;;;;;;;;;4.90;99.90;;;;;;6212310;23;19911;-89
2023/04/04 07:14:41;;;;;;;;;;;5.00;99.90;;;;;;6234403;23;19911;-88
2023/04/04 07:17:07;;;;;;;;;;;5.10;99.90;;;;;;6209490;23;19908;-88
2023/04/04 07:19:32;;;;;;;;;;;7.10;99.90;;;;;;6210844;23;19915;-87
2023/04/04 07:21:58;;;;;;;;;;;5.30;99.90;;;;;;6210814;23;19915;-86
2023/04/04 07:24:23;;;;;;;;;;;5.30;99.90;;;;;;6210257;23;19904;-87
2023/04/04 07:26:51;;;;;;;;;;;5.30;99.90;;;;;;6210349;23;20178;-87
2023/04/04 07:29:16;;;;;;;;;;;5.40;99.90;;;;;;6235322;23;19904;-87
2023/04/04 07:31:42;;;;;;;;;;;5.60;99.90;;;;;;6211022;23;19983;-87
2023/04/04 07:34:07;;;;;;;;;;;6.80;99.90;;;;;;6210867;23;19908;-86
2023/04/04 07:36:33;;;;;;;;;;;5.70;99.90;;;;;;6210208;23;19904;-87
2023/04/04 07:38:58;;;;;;;;;;;6.00;99.90;;;;;;6210988;23;19911;-87
2023/04/04 07:41:25;;;;;;;;;;;5.90;99.90;;;;;;6236679;23;19912;-86
2023/04/04 07:43:50;;;;;;;;;;;6.20;99.90;;;;;;6213015;23;19904;-87
2023/04/04 07:46:16;;;;;;;;;;;6.30;99.90;;;;;;6211799;23;20226;-87
2023/04/04 07:48:42;;;;;;;;;;;6.30;99.90;;;;;;6212844;23;19994;-88
2023/04/04 07:51:08;;;;;;;;;;;8.50;99.90;;;;;;6236709;23;20701;-89
2023/04/04 07:53:33;;;;;;;;;;;6.50;99.90;;;;;;6212668;23;19904;-89
2023/04/04 07:56:05;;;;;;;;;;;6.60;99.90;;;;;;6236256;23;19940;-89
2023/04/04 07:58:31;;;;;;;;;;;8.70;99.90;;;;;;6211199;23;20291;-88
2023/04/04 08:00:56;;;;;;;;;;;6.90;99.90;;;;;;6212826;23;19912;-89
2023/04/04 08:03:24;;;;;;;;;;;7.00;99.90;;;;;;6212750;23;19951;-90
2023/04/04 08:05:50;;;;;;;;;;;7.10;99.90;;;;;;6212502;23;20367;-86
2023/04/04 08:08:15;;;;;;;;;;;7.30;99.90;;;;;;6213816;23;19904;-89
2023/04/04 08:10:41;;;;;;;;;;;7.40;99.90;;;;;;6211201;23;19904;-89
2023/04/04 08:13:08;;;;;;;;;;;7.50;99.90;;;;;;6212881;23;19904;-88
2023/04/04 08:15:34;;;;;;;;;;;7.60;99.90;;;;;;6210581;23;19911;-89
2023/04/04 08:18:00;;;;;;;;;;;7.90;99.90;;;;;;6212271;23;19943;-88
2023/04/04 08:20:26;;;;;;;;;;;7.80;99.90;;;;;;6210821;23;19912;-89
2023/04/04 08:22:52;;;;;;;;;;;8.00;99.90;;;;;;6212837;23;19904;-89
2023/04/04 08:25:17;;;;;;;;;;;8.10;99.90;;;;;;6213230;23;19931;-86
2023/04/04 08:27:43;;;;;;;;;;;7.70;99.90;;;;;;6212451;23;19938;-88
2023/04/04 08:30:09;;;;;;;;;;;8.20;99.90;;;;;;6212449;23;20240;-89
2023/04/04 08:32:35;;;;;;;;;;;8.20;99.90;;;;;;6212551;23;19911;-88
2023/04/04 08:35:01;;;;;;;;;;;8.30;99.90;;;;;;6212473;23;19950;-87
2023/04/04 08:37:28;;;;;;;;;;;8.40;99.90;;;;;;6211741;23;20244;-88
2023/04/04 08:39:54;;;;;;;;;;;8.60;99.90;;;;;;6212010;23;20295;-88
2023/04/04 08:42:20;;;;;;;;;;;8.80;99.90;;;;;;6211919;23;19983;-88
2023/04/04 08:44:46;;;;;;;;;;;8.40;99.90;;;;;;6212538;23;19904;-88
2023/04/04 08:47:13;;;;;;;;;;;8.40;99.90;;;;;;6212047;23;20099;-88
2023/04/04 08:49:42;;;;;;;;;;;8.80;99.90;;;;;;6210600;23;19914;-87
2023/04/04 08:52:09;;;;;;;;;;;9.60;99.90;;;;;;6210439;23;20260;-88
2023/04/04 08:54:35;;;;;;;;;;;9.10;99.90;;;;;;6210414;23;19934;-88
2023/04/04 08:57:01;;;;;;;;;;;9.10;99.90;;;;;;6210693;23;19943;-88
2023/04/04 08:59:26;;;;;;;;;;;9.30;99.90;;;;;;6235806;23;19915;-88
2023/04/04 09:01:59;;;;;;;;;;;9.10;99.90;;;;;;6212931;23;19915;-87
2023/04/04 09:04:26;;;;;;;;;;;8.40;99.90;;;;;;6211716;23;19904;-88
2023/04/04 09:06:52;;;;;;;;;;;9.40;99.90;;;;;;6213455;23;19910;-88
2023/04/04 09:09:18;;;;;;;;;;;10.40;99.90;;;;;;6213073;23;20279;-89
2023/04/04 09:11:45;;;;;;;;;;;9.40;99.90;;;;;;6211003;23;19962;-89
2023/04/04 09:14:11;;;;;;;;;;;9.70;99.90;;;;;;6211652;23;19904;-89
2023/04/04 09:16:36;;;;;;;;;;;9.80;99.90;;;;;;6212066;23;19911;-89
2023/04/04 09:19:02;;;;;;;;;;;9.80;99.90;;;;;;6235714;23;20296;-87
2023/04/04 09:21:28;;;;;;;;;;;9.90;99.90;;;;;;6212162;23;19919;-90
2023/04/04 09:23:57;;;;;;;;;;;10.00;99.90;;;;;;6211012;23;19904;-88
2023/04/04 09:26:22;;;;;;;;;;;10.20;99.90;;;;;;6213098;23;19919;-88
2023/04/04 09:28:51;;;;;;;;;;;10.20;99.90;;;;;;6211818;23;20015;-90
2023/04/04 09:31:16;;;;;;;;;;;10.20;99.90;;;;;;6211983;23;20325;-88
2023/04/04 09:33:42;;;;;;;;;;;10.20;99.90;;;;;;6211253;23;19904;-88
2023/04/04 09:36:10;;;;;;;;;;;10.10;99.90;;;;;;6235689;23;19904;-88
2023/04/04 09:38:41;;;;;;;;;;;10.30;99.90;;;;;;6211946;23;19995;-87
2023/04/04 09:41:08;;;;;;;;;;;10.30;99.90;;;;;;6211871;23;19919;-88
2023/04/04 09:43:34;;;;;;;;;;;10.30;99.90;;;;;;6235253;23;19950;-88
2023/04/04 09:46:00;;;;;;;;;;;10.20;99.90;;;;;;6209664;23;19979;-89
2023/04/04 09:48:26;;;;;;;;;;;10.00;99.90;;;;;;6211898;23;20229;-88
2023/04/04 09:50:51;;;;;;;;;;;10.30;99.90;;;;;;6212914;23;19986;-88
2023/04/04 09:53:17;;;;;;;;;;;10.40;99.90;;;;;;6211348;23;20245;-88
2023/04/04 09:55:49;;;;;;;;;;;10.60;99.90;;;;;;6209440;23;19979;-88
2023/04/04 09:58:16;;;;;;;;;;;10.50;99.90;;;;;;6210063;23;19904;-89
2023/04/04 10:00:46;;;;;;;;;;;10.50;99.90;;;;;;6209859;23;19916;-88
2023/04/04 10:03:15;;;;;;;;;;;10.50;99.90;;;;;;6234780;23;19987;-88
2023/04/04 10:05:41;;;;;;;;;;;10.70;99.90;;;;;;6211662;23;20259;-88
2023/04/04 10:08:12;;;;;;;;;;;10.80;99.90;;;;;;6209911;23;20442;-88
2023/04/04 10:10:44;;;;;;;;;;;10.80;99.90;;;;;;6211708;23;19904;-88
2023/04/04 10:13:10;;;;;;;;;;;10.70;99.90;;;;;;6209763;23;20332;-88
2023/04/04 10:15:39;;;;;;;;;;;10.80;99.90;;;;;;6211604;23;19926;-89
2023/04/04 10:18:04;;;;;;;;;;;10.80;99.90;;;;;;6211787;23;19904;-88
2023/04/04 10:20:32;;;;;;;;;;;11.00;99.90;;;;;;6211510;23;19923;-90
2023/04/04 10:22:58;;;;;;;;;;;10.80;99.90;;;;;;6211689;23;19950;-88
2023/04/04 10:25:24;;;;;;;;;;;10.70;99.90;;;;;;6212041;23;20354;-89
2023/04/04 10:27:50;;;;;;;;;;;10.60;99.90;;;;;;6209602;23;19916;-88
2023/04/04 10:30:15;;;;;;;;;;;10.50;99.90;;;;;;6211686;23;19904;-88
2023/04/04 10:32:41;;;;;;;;;;;10.80;99.90;;;;;;6211540;23;19958;-88
2023/04/04 10:35:09;;;;;;;;;;;10.80;99.90;;;;;;6210946;23;19908;-89
2023/04/04 10:37:42;;;;;;;;;;;10.90;99.90;;;;;;6211509;23;19942;-89
2023/04/04 10:40:18;;;;;;;;;;;10.80;99.90;;;;;;6211215;23;20272;-88
2023/04/04 10:42:45;;;;;;;;;;;10.80;99.90;;;;;;6211606;23;20473;-88
2023/04/04 10:45:12;;;;;;;;;;;11.10;99.90;;;;;;6210464;23;20022;-90
2023/04/04 10:47:38;;;;;;;;;;;11.10;99.90;;;;;;6211202;23;20345;-89
2023/04/04 10:50:06;;;;;;;;;;;11.20;99.90;;;;;;6211243;23;19904;-89
2023/04/04 10:52:32;;;;;;;;;;;11.00;99.90;;;;;;6211286;23;19911;-89
2023/04/04 10:55:03;;;;;;;;;;;10.80;99.90;;;;;;6211853;23;19904;-90
2023/04/04 10:57:29;;;;;;;;;;;10.90;99.90;;;;;;6211920;23;19958;-89
2023/04/04 11:00:13;;;;;;;;;;;11.10;99.90;;;;;;6209731;23;19916;-88
2023/04/04 11:02:58;;;;;;;;;;;11.20;99.90;;;;;;6211420;23;19904;-88
2023/04/04 11:05:30;;;;;;;;;;;11.20;99.90;;;;;;6211412;23;19912;-89
2023/04/04 11:08:06;;;;;;;;;;;11.30;99.90;;;;;;6212314;23;20387;-90
2023/04/04 11:10:35;;;;;;;;;;;11.40;99.90;;;;;;6208936;23;19914;-90
2023/04/04 11:13:07;;;;;;;;;;;11.50;99.90;;;;;;6209858;23;19908;-90
2023/04/04 11:15:45;;;;;;;;;;;11.40;99.90;;;;;;6234653;23;19904;-88
2023/04/04 11:18:12;;;;;;;;;;;11.30;99.90;;;;;;6211157;23;19908;-89
2023/04/04 11:20:44;;;;;;;;;;;11.20;99.90;;;;;;6209097;23;19915;-88
2023/04/04 11:23:15;;;;;;;;;;;11.30;99.90;;;;;;6210961;23;19904;-89
2023/04/04 11:25:48;;;;;;;;;;;11.50;99.90;;;;;;6211486;23;19927;-90
2023/04/04 11:28:24;;;;;;;;;;;11.40;99.90;;;;;;6211004;23;20416;-89
2023/04/04 11:31:09;;;;;;;;;;;11.50;99.90;;;;;;6209060;23;20151;-89
2023/04/04 11:33:52;;;;;;;;;;;11.60;99.90;;;;;;6209271;23;19986;-90
2023/04/04 11:36:36;;;;;;;;;;;11.50;99.90;;;;;;6211053;23;19904;-88
2023/04/04 11:39:13;;;;;;;;;;;12.10;99.90;;;;;;6211223;23;20332;-90
2023/04/04 11:41:54;;;;;;;;;;;11.30;99.90;;;;;;6210601;23;19916;-89
2023/04/04 11:44:23;;;;;;;;;;;11.40;99.90;;;;;;6210533;23;19904;-89
2023/04/04 11:46:56;;;;;;;;;;;11.60;99.90;;;;;;6210971;23;19904;-88
2023/04/04 11:49:27;;;;;;;;;;;11.60;99.90;;;;;;6211221;23;19938;-88
2023/04/04 11:51:53;;;;;;;;;;;11.70;99.90;;;;;;6208960;23;19904;-90
2023/04/04 11:54:19;;;;;;;;;;;11.80;99.90;;;;;;6210393;23;19904;-89
2023/04/04 11:56:45;;;;;;;;;;;11.70;99.90;;;;;;6210924;23;19904;-90
2023/04/04 11:59:11;;;;;;;;;;;11.60;99.90;;;;;;6210822;23;19908;-90
2023/04/04 12:01:37;;;;;;;;;;;11.60;99.90;;;;;;6234346;23;20359;-89
2023/04/04 12:04:03;;;;;;;;;;;11.60;99.90;;;;;;6210896;23;19950;-88
2023/04/04 12:06:31;;;;;;;;;;;11.70;99.90;;;;;;6210363;23;19903;-89
2023/04/04 12:08:57;;;;;;;;;;;11.70;99.90;;;;;;6211834;23;20283;-88
2023/04/04 12:11:24;;;;;;;;;;;11.60;99.90;;;;;;6210071;23;19912;-89
2023/04/04 12:13:50;;;;;;;;;;;11.80;99.90;;;;;;6210650;23;19987;-88
2023/04/04 12:16:17;;;;;;;;;;;11.80;99.90;;;;;;6234266;23;19939;-88
2023/04/04 12:18:43;;;;;;;;;;;11.90;99.90;;;;;;6210891;23;19910;-89
2023/04/04 12:21:09;;;;;;;;;;;12.00;99.90;;;;;;6210865;23;20257;-89
2023/04/04 12:23:35;;;;;;;;;;;12.00;99.90;;;;;;6209247;23;19904;-89
2023/04/04 12:26:04;;;;;;;;;;;12.10;99.90;;;;;;6211791;23;20007;-90
2023/04/04 12:28:31;;;;;;;;;;;11.40;99.90;;;;;;6211792;23;19919;-90
2023/04/04 12:31:03;;;;;;;;;;;12.10;99.90;;;;;;6211164;23;20386;-89
2023/04/04 12:33:29;;;;;;;;;;;12.30;99.90;;;;;;6214279;23;19982;-89
2023/04/04 12:35:55;;;;;;;;;;;12.30;99.90;;;;;;6212240;23;19939;-89
2023/04/04 12:38:20;;;;;;;;;;;12.40;99.90;;;;;;6212726;23;19908;-88
2023/04/04 12:40:46;;;;;;;;;;;12.40;99.90;;;;;;6212394;23;19912;-89
2023/04/04 12:43:15;;;;;;;;;;;12.30;99.90;;;;;;6212563;23;19904;-89
2023/04/04 12:45:42;;;;;;;;;;;12.30;99.90;;;;;;6212066;23;19915;-90
2023/04/04 12:48:08;;;;;;;;;;;12.30;99.90;;;;;;6212578;23;19911;-90
2023/04/04 12:50:47;;;;;;;;;;;12.30;99.90;;;;;;6213063;23;20244;-90
2023/04/04 12:53:12;;;;;;;;;;;12.40;99.90;;;;;;6212454;23;20237;-89
2023/04/04 12:55:38;;;;;;;;;;;12.40;99.90;;;;;;6211784;23;20329;-89
2023/04/04 12:58:03;;;;;;;;;;;12.40;99.90;;;;;;6211740;23;19935;-89
2023/04/04 13:00:29;;;;;;;;;;;12.40;99.90;;;;;;6211944;23;19919;-89
2023/04/04 13:02:55;;;;;;;;;;;12.50;99.90;;;;;;6212469;23;20209;-90
2023/04/04 13:05:24;;;;;;;;;;;12.40;99.90;;;;;;6210386;23;19912;-90
2023/04/04 13:07:50;;;;;;;;;;;12.60;99.90;;;;;;6210678;23;19904;-90
2023/04/04 13:10:16;;;;;;;;;;;12.60;99.90;;;;;;6212248;23;20007;-89
2023/04/04 13:12:51;;;;;;;;;;;12.50;99.90;;;;;;6212371;23;20275;-89
2023/04/04 13:15:16;;;;;;;;;;;12.40;99.90;;;;;;6211755;23;20252;-88
2023/04/04 13:17:43;;;;;;;;;;;12.30;99.90;;;;;;6212205;23;19939;-90
2023/04/04 13:20:09;;;;;;;;;;;12.50;99.90;;;;;;6212053;23;19942;-89
2023/04/04 13:22:35;;;;;;;;;;;12.70;99.90;;;;;;6213088;23;20290;-90
2023/04/04 13:25:01;;;;;;;;;;;11.90;99.90;;;;;;6212188;23;20221;-90
2023/04/04 13:27:27;;;;;;;;;;;12.70;99.90;;;;;;6212166;23;19927;-90
2023/04/04 13:29:53;;;;;;;;;;;12.70;99.90;;;;;;6212186;23;19911;-89
2023/04/04 13:32:18;;;;;;;;;;;12.80;99.90;;;;;;6210404;23;19932;-89
2023/04/04 13:34:44;;;;;;;;;;;12.70;99.90;;;;;;6211628;23;19939;-90
2023/04/04 13:37:09;;;;;;;;;;;12.80;99.90;;;;;;6211816;23;19907;-91
2023/04/04 13:39:35;;;;;;;;;;;12.70;99.90;;;;;;6213470;23;19908;-88
2023/04/04 13:42:02;;;;;;;;;;;12.60;99.90;;;;;;6212220;23;19904;-89
2023/04/04 13:44:27;;;;;;;;;;;12.70;99.90;;;;;;6209749;23;20268;-89
2023/04/04 13:46:53;;;;;;;;;;;12.80;99.90;;;;;;6212033;23;19911;-89
2023/04/04 13:49:18;;;;;;;;;;;12.80;99.90;;;;;;6211846;23;19904;-89
2023/04/04 13:51:44;;;;;;;;;;;12.80;99.90;;;;;;6211863;23;19908;-89
2023/04/04 13:54:10;;;;;;;;;;;13.00;99.90;;;;;;6210387;23;19904;-88
2023/04/04 13:56:35;;;;;;;;;;;13.00;99.90;;;;;;6213008;23;19911;-89
2023/04/04 13:59:01;;;;;;;;;;;13.00;99.90;;;;;;6210220;23;19903;-90
2023/04/04 14:01:27;;;;;;;;;;;13.20;99.90;;;;;;6210553;23;19915;-89
2023/04/04 14:03:53;;;;;;;;;;;13.10;99.90;;;;;;6211677;23;19911;-91
2023/04/04 14:06:19;;;;;;;;;;;13.20;99.90;;;;;;6209613;23;19911;-89
2023/04/04 14:08:46;;;;;;;;;;;13.40;99.90;;;;;;6211746;23;19904;-90
2023/04/04 14:11:12;;;;;;;;;;;13.40;99.90;;;;;;6211243;23;20279;-89
2023/04/04 14:13:37;;;;;;;;;;;13.60;99.90;;;;;;6211861;23;19904;-89
2023/04/04 14:16:03;;;;;;;;;;;13.50;99.90;;;;;;6211636;23;20395;-90
2023/04/04 14:18:28;;;;;;;;;;;13.60;99.90;;;;;;6211540;23;19911;-88
2023/04/04 14:20:54;;;;;;;;;;;13.60;99.90;;;;;;6211446;23;19919;-89
2023/04/04 14:23:20;;;;;;;;;;;13.70;99.90;;;;;;6209785;23;19911;-87
2023/04/04 14:25:48;;;;;;;;;;;13.60;99.90;;;;;;6235535;23;19911;-89
2023/04/04 14:28:14;;;;;;;;;;;13.60;99.90;;;;;;6209973;23;19912;-89
2023/04/04 14:30:39;;;;;;;;;;;13.80;99.90;;;;;;6212434;23;19932;-88
2023/04/04 14:33:05;;;;;;;;;;;13.90;99.90;;;;;;6211731;23;20222;-89
2023/04/04 14:35:31;;;;;;;;;;;13.80;99.90;;;;;;6211204;23;19907;-89
2023/04/04 14:37:56;;;;;;;;;;;13.70;99.90;;;;;;6209851;23;19904;-89
2023/04/04 14:40:22;;;;;;;;;;;13.80;99.90;;;;;;6209763;23;19912;-88
2023/04/04 14:42:47;;;;;;;;;;;13.70;99.90;;;;;;6210958;23;19950;-88
2023/04/04 14:45:13;;;;;;;;;;;12.30;99.90;;;;;;6211430;23;19991;-88
2023/04/04 14:47:38;;;;;;;;;;;15.20;99.90;;;;;;6212245;23;19904;-90
2023/04/04 14:50:04;;;;;;;;;;;13.70;99.90;;;;;;6209266;23;19904;-88
2023/04/04 14:52:30;;;;;;;;;;;13.50;99.90;;;;;;6211052;23;20351;-88
2023/04/04 14:54:56;;;;;;;;;;;13.70;99.90;;;;;;6211049;23;19904;-87
2023/04/04 14:57:22;;;;;;;;;;;13.70;99.90;;;;;;6211230;23;19903;-89
2023/04/04 14:59:47;;;;;;;;;;;13.80;99.90;;;;;;6211283;23;19908;-89
2023/04/04 15:02:13;;;;;;;;;;;13.80;99.90;;;;;;6211184;23;19939;-88
2023/04/04 15:04:38;;;;;;;;;;;13.80;99.90;;;;;;6211410;23;19942;-88
2023/04/04 15:07:04;;;;;;;;;;;13.80;99.90;;;;;;6211400;23;19940;-88
2023/04/04 15:09:29;;;;;;;;;;;13.90;99.90;;;;;;6211247;23;19904;-90
2023/04/04 15:11:56;;;;;;;;;;;14.00;99.90;;;;;;6209715;23;19943;-88
2023/04/04 15:14:22;;;;;;;;;;;14.00;99.90;;;;;;6210772;23;19904;-88
2023/04/04 15:16:48;;;;;;;;;;;13.90;99.90;;;;;;6211337;23;19904;-88
2023/04/04 15:19:13;;;;;;;;;;;13.90;99.90;;;;;;6211045;23;19904;-87
2023/04/04 15:21:39;;;;;;;;;;;14.20;99.90;;;;;;6210514;23;19994;-89
2023/04/04 15:24:05;;;;;;;;;;;14.00;99.90;;;;;;6210759;23;19904;-88
2023/04/04 15:26:31;;;;;;;;;;;14.10;99.90;;;;;;6211295;23;20252;-89
2023/04/04 15:28:56;;;;;;;;;;;14.20;99.90;;;;;;6210771;23;19987;-89
2023/04/04 15:31:24;;;;;;;;;;;14.00;99.90;;;;;;6209292;23;19982;-89
2023/04/04 15:33:50;;;;;;;;;;;14.10;99.90;;;;;;6208968;23;20359;-88
2023/04/04 15:36:16;;;;;;;;;;;14.30;99.90;;;;;;6211292;23;19908;-88
2023/04/04 15:38:41;;;;;;;;;;;14.40;99.90;;;;;;6212539;23;20375;-89
2023/04/04 15:41:08;;;;;;;;;;;14.20;99.90;;;;;;6211443;23;19912;-90
2023/04/04 15:43:34;;;;;;;;;;;14.30;99.90;;;;;;6209283;23;20195;-89
2023/04/04 15:46:00;;;;;;;;;;;14.30;99.90;;;;;;6211182;23;19911;-90
2023/04/04 15:48:25;;;;;;;;;;;14.20;99.90;;;;;;6235277;23;20271;-89
2023/04/04 15:50:51;;;;;;;;;;;14.20;99.90;;;;;;6211285;23;19908;-89
2023/04/04 15:53:16;;;;;;;;;;;14.40;99.90;;;;;;6210317;23;19911;-90
2023/04/04 15:55:42;;;;;;;;;;;14.50;99.90;;;;;;6234181;23;19904;-90
2023/04/04 15:58:08;;;;;;;;;;;14.60;99.90;;;;;;6211372;23;20237;-89
2023/04/04 16:00:33;;;;;;;;;;;14.60;99.90;;;;;;6211816;23;19908;-89
2023/04/04 16:02:59;;;;;;;;;;;14.70;99.90;;;;;;6211014;23;19904;-89
2023/04/04 16:05:26;;;;;;;;;;;14.70;99.90;;;;;;6212408;23;19911;-88
2023/04/04 16:07:51;;;;;;;;;;;14.80;99.90;;;;;;6213151;23;19932;-91
2023/04/04 16:10:19;;;;;;;;;;;14.90;99.90;;;;;;6211491;23;19904;-91
2023/04/04 16:12:45;;;;;;;;;;;14.80;99.90;;;;;;6213923;23;19910;-89
2023/04/04 16:15:11;;;;;;;;;;;14.50;99.90;;;;;;6210741;23;19987;-89
2023/04/04 16:17:37;;;;;;;;;;;14.40;99.90;;;;;;6210763;23;19923;-89
2023/04/04 16:20:03;;;;;;;;;;;14.30;99.90;;;;;;6211457;23;19912;-88
2023/04/04 16:22:29;;;;;;;;;;;14.30;99.90;;;;;;6212361;23;20248;-89
2023/04/04 16:24:54;;;;;;;;;;;14.40;99.90;;;;;;6212251;23;20316;-89
2023/04/04 16:27:20;;;;;;;;;;;14.40;99.90;;;;;;6212684;23;19915;-90
2023/04/04 16:29:46;;;;;;;;;;;14.60;99.90;;;;;;6214004;23;19908;-89
2023/04/04 16:32:11;;;;;;;;;;;14.60;99.90;;;;;;6211629;23;19962;-89
2023/04/04 16:34:37;;;;;;;;;;;14.60;99.90;;;;;;6211904;23;19908;-91
2023/04/04 16:37:03;;;;;;;;;;;13.20;99.90;;;;;;6211345;23;19911;-89
2023/04/04 16:39:28;;;;;;;;;;;14.60;99.90;;;;;;6212685;23;20291;-90
2023/04/04 16:41:54;;;;;;;;;;;14.50;99.90;;;;;;6210991;23;20383;-89
2023/04/04 16:44:19;;;;;;;;;;;14.60;99.90;;;;;;6211696;23;19904;-89
2023/04/04 16:46:46;;;;;;;;;;;14.80;99.90;;;;;;6213330;23;19904;-89
2023/04/04 16:49:11;;;;;;;;;;;15.80;99.90;;;;;;6212379;23;19931;-88
2023/04/04 16:51:37;;;;;;;;;;;15.90;99.90;;;;;;6211679;23;20482;-90
2023/04/04 16:54:03;;;;;;;;;;;16.10;99.90;;;;;;6212554;23;19908;-90
2023/04/04 16:56:29;;;;;;;;;;;16.30;99.90;;;;;;6212699;23;19950;-88
2023/04/04 16:58:55;;;;;;;;;;;16.40;99.90;;;;;;6211074;23;20292;-89
2023/04/04 17:01:21;;;;;;;;;;;17.00;99.90;;;;;;6210052;23;19916;-90
2023/04/04 17:03:49;;;;;;;;;;;16.90;99.90;;;;;;6213642;23;19950;-90
2023/04/04 17:06:15;;;;;;;;;;;16.90;99.90;;;;;;6237251;23;19904;-89
2023/04/04 17:08:41;;;;;;;;;;;17.30;99.90;;;;;;6212072;23;19908;-90
2023/04/04 17:11:07;;;;;;;;;;;17.30;99.90;;;;;;6210555;23;19903;-89
2023/04/04 17:13:34;;;;;;;;;;;17.20;99.90;;;;;;6212610;23;20329;-90
2023/04/04 17:16:00;;;;;;;;;;;16.80;99.90;;;;;;6210120;23;19910;-89
2023/04/04 17:18:25;;;;;;;;;;;17.10;99.90;;;;;;6212215;23;19983;-89
2023/04/04 17:20:51;;;;;;;;;;;17.00;99.90;;;;;;6210560;23;20451;-90
2023/04/04 17:23:16;;;;;;;;;;;17.10;99.90;;;;;;6213324;23;20304;-90
2023/04/04 17:25:42;;;;;;;;;;;16.40;99.90;;;;;;6210278;23;19911;-89
2023/04/04 17:28:07;;;;;;;;;;;16.10;99.90;;;;;;6211959;23;19912;-90
2023/04/04 17:30:33;;;;;;;;;;;16.30;99.90;;;;;;6235908;23;19907;-89
2023/04/04 17:32:58;;;;;;;;;;;15.90;99.90;;;;;;6212433;23;19911;-89
2023/04/04 17:35:24;;;;;;;;;;;16.20;99.90;;;;;;6211865;23;19950;-89
2023/04/04 17:37:50;;;;;;;;;;;16.60;99.90;;;;;;6211563;23;19927;-90
2023/04/04 17:40:16;;;;;;;;;;;15.90;99.90;;;;;;6211645;23;19994;-89
2023/04/04 17:42:41;;;;;;;;;;;15.40;99.90;;;;;;6210505;23;19939;-90
2023/04/04 17:45:07;;;;;;;;;;;15.80;99.90;;;;;;6211549;23;19904;-89
2023/04/04 17:47:33;;;;;;;;;;;15.20;99.90;;;;;;6212042;23;19983;-88
2023/04/04 17:49:58;;;;;;;;;;;14.40;99.90;;;;;;6212152;23;19986;-89
2023/04/04 17:52:24;;;;;;;;;;;14.30;99.90;;;;;;6211561;23;19904;-91
2023/04/04 17:54:52;;;;;;;;;;;14.00;99.90;;;;;;6211604;23;19904;-92
2023/04/04 17:57:18;;;;;;;;;;;13.70;99.90;;;;;;6211252;23;19983;-89
2023/04/04 17:59:44;;;;;;;;;;;13.40;99.90;;;;;;6211809;23;19935;-89
2023/04/04 18:02:09;;;;;;;;;;;13.40;99.90;;;;;;6211389;23;19904;-91
2023/04/04 18:04:36;;;;;;;;;;;13.30;99.90;;;;;;6212022;23;19956;-92
2023/04/04 18:07:02;;;;;;;;;;;13.20;99.90;;;;;;6210256;23;19915;-90
2023/04/04 18:09:27;;;;;;;;;;;12.80;99.90;;;;;;6212023;23;19904;-90
2023/04/04 18:11:53;;;;;;;;;;;12.60;99.90;;;;;;6211266;23;19966;-88